Sublette, KS (67877)

5:01 PM CDT on September 01, 2015 (GMT -0500)
Lobmeyer Seed Farms | | Change Station
CLOSE
Current Station
Personal Weather Station
Location: Garden City, KS
Elevation: 2890 ft
Nearby Weather Stations

Elev 2890 ft 37.74 °N, 100.85 °W | Updated 9 minutes ago

Partly Cloudy
Partly Cloudy
93.4 °F
Feels Like 94 °F
N
5.0
Wind Variable Wind from SW
Gusts 12.0 mph

Today
High -- | Low -- °F
--% Chance of Precip.
Yesterday
High -- | Low -- °F
Precip. -- in
7:13 AM 8:12 PM
Waning Gibbous, 86% visible
Pressure 29.81 in
Visibility 10.0 miles
Clouds Clear
Heat Index 94 °F
Dew Point 63 °F
Humidity 36%
Rainfall 0.00 in
Snow Depth Not available.
UV 5 out of 12
Pollen 11.60 out of 12
Air Quality Not available.
Flu Activity Not available.
METAR KGCK 012154Z 18015G25KT 10SM CLR 35/13 A2993 RMK AO2 SLP095 T03500128
Pressure 29.81 in
Visibility 10.0 miles
Clouds Clear
Heat Index 94 °F
Dew Point 63 °F
Humidity 36%
Rainfall 0.00 in
Snow Depth Not available.
UV 5 out of 12
Pollen 11.60 out of 12
Air Quality Not available.
Flu Activity Not available.
METAR KGCK 012154Z 18015G25KT 10SM CLR 35/13 A2993 RMK AO2 SLP095 T03500128

10-Day Weather Forecast

×

Almanac

Astronomy

Sep. 01, 2015 Rise Set
Actual Time
Civil Twilight
Nautical Twilight
Astronomical Twilight
Moon
Length of Visible Light
Length of Day
Tomorrow will be .
, % of the Moon is Illuminated

Today's Extremes

State Highs State Lows

Community

WunderPhotos

Upload Photos

1,851,629 photos uploaded!

WunderBlogs® & News

Nearby

Air Quality

  Air Quality AQ Index Pollutant
Not available.

Snow Depth

Station Depth Elevation

Earthquake Activity

City Distance Mag. Time & Date
Minimum magnitude displayed is 2.5.

Coastal Water Temperatures

Place Temperature

Stations

Nearby Weather Stations

Station Location Temp. Windchill Dew Point Humidity Wind Precip. Elev Updated Type